West Homestead, Pennsylvania
Current Conditions -  °F | °C
As of 4:53 PM on Sunday 23 Nov 2014 (Local Time) from KAGC Reporting Station
Clear Clear  
Wind Chill: 60°   Ceiling: Unl
Heat Index: 60°   Visibility: 10mi
Dew Point: 38°   Wind: 10mph
Humidity: 44%   Direction: 130°SE
Pressure: 29.83"   Gusts: NA
Location:  40.3948°N, 79.9074°W
Report Text: KAGC 232153Z 13009KT 10SM CLR 16/03 A2983 RMK AO2 SLP107 T01560033
Loading
Personal Weather Stations






























Interactive Weather Map New forecast layout! Learn more

10-Day Weather Forecast

Advertisements
Track Severe Weather on mobile